createdAt,value
2023-03-05T00:01:18.293Z,5.28
2023-03-05T00:03:45.494Z,5.32
2023-03-05T00:06:12.116Z,5.40
2023-03-05T00:08:38.773Z,5.52
2023-03-05T00:11:08.875Z,5.53
2023-03-05T00:13:35.899Z,5.46
2023-03-05T00:16:04.660Z,5.15
2023-03-05T00:18:31.320Z,5.17
2023-03-05T00:20:57.913Z,5.20
2023-03-05T00:23:24.464Z,5.21
2023-03-05T00:25:51.325Z,5.21
2023-03-05T00:28:17.924Z,5.07
2023-03-05T00:30:44.587Z,4.99
2023-03-05T00:33:12.523Z,4.98
2023-03-05T00:35:44.088Z,5.02
2023-03-05T00:38:11.231Z,4.99
2023-03-05T00:40:39.493Z,4.89
2023-03-05T00:43:07.181Z,4.87
2023-03-05T00:45:34.078Z,4.78
2023-03-05T00:48:00.897Z,4.66
2023-03-05T00:50:28.090Z,4.70
2023-03-05T00:52:55.010Z,4.94
2023-03-05T00:55:22.175Z,4.99
2023-03-05T00:57:48.649Z,5.11
2023-03-05T01:00:16.136Z,4.78
2023-03-05T01:02:42.652Z,4.55
2023-03-05T01:05:12.546Z,4.35
2023-03-05T01:07:39.166Z,4.25
2023-03-05T01:10:06.730Z,4.20
2023-03-05T01:12:33.221Z,4.38
2023-03-05T01:14:59.716Z,4.41
2023-03-05T01:17:26.146Z,4.44
2023-03-05T01:19:52.670Z,4.43
2023-03-05T01:22:19.191Z,4.47
2023-03-05T01:24:45.633Z,4.62
2023-03-05T01:27:12.405Z,4.66
2023-03-05T01:29:38.874Z,4.49
2023-03-05T01:32:05.616Z,4.61
2023-03-05T01:34:32.548Z,4.71
2023-03-05T01:36:58.945Z,4.77
2023-03-05T01:39:25.363Z,4.70
2023-03-05T01:41:51.768Z,4.75
2023-03-05T01:44:23.006Z,4.67
2023-03-05T01:46:49.960Z,4.54
2023-03-05T01:49:38.738Z,4.47
2023-03-05T01:52:13.934Z,4.51
2023-03-05T01:54:47.939Z,4.44
2023-03-05T01:57:18.010Z,4.49
2023-03-05T01:59:48.522Z,4.51
2023-03-05T02:02:15.140Z,4.48
2023-03-05T02:04:54.763Z,4.35
2023-03-05T02:07:22.388Z,4.24
2023-03-05T02:09:49.763Z,4.19
2023-03-05T02:12:16.963Z,4.14
2023-03-05T02:14:46.547Z,4.12
2023-03-05T02:17:13.773Z,4.15
2023-03-05T02:20:02.511Z,4.32
2023-03-05T02:22:28.946Z,4.24
2023-03-05T02:24:55.409Z,4.13
2023-03-05T02:27:34.626Z,4.10
2023-03-05T02:30:02.002Z,4.10
2023-03-05T02:32:28.483Z,4.20
2023-03-05T02:34:54.955Z,4.30
2023-03-05T02:37:21.369Z,4.28
2023-03-05T02:39:47.808Z,4.37
2023-03-05T02:42:14.245Z,4.38
2023-03-05T02:44:40.724Z,4.24
2023-03-05T02:47:07.356Z,4.07
2023-03-05T02:49:33.795Z,4.20
2023-03-05T02:52:00.289Z,4.19
2023-03-05T02:54:26.782Z,4.15
2023-03-05T02:56:53.262Z,4.18
2023-03-05T02:59:19.687Z,4.21
2023-03-05T03:01:46.120Z,4.02
2023-03-05T03:04:12.552Z,4.07
2023-03-05T03:06:39.006Z,4.01
2023-03-05T03:09:05.488Z,4.01
2023-03-05T03:11:31.960Z,4.01
2023-03-05T03:13:59.841Z,4.12
2023-03-05T03:16:26.320Z,4.17
2023-03-05T03:18:52.775Z,4.27
2023-03-05T03:21:22.579Z,4.23
2023-03-05T03:23:49.063Z,4.06
2023-03-05T03:26:15.561Z,3.80
2023-03-05T03:28:42.062Z,3.66
2023-03-05T03:31:08.932Z,3.60
2023-03-05T03:33:35.515Z,3.67
2023-03-05T03:36:03.500Z,3.70
2023-03-05T03:38:29.931Z,3.61
2023-03-05T03:40:56.416Z,3.50
2023-03-05T03:43:22.948Z,3.35
2023-03-05T03:45:49.427Z,3.25
2023-03-05T03:48:15.937Z,3.23
2023-03-05T03:50:43.651Z,3.29
2023-03-05T03:53:14.114Z,3.31
2023-03-05T03:55:42.723Z,3.26
2023-03-05T03:58:09.659Z,3.30
2023-03-05T04:00:36.300Z,3.28
2023-03-05T04:03:02.746Z,3.26
2023-03-05T04:05:29.170Z,3.47
2023-03-05T04:07:55.653Z,3.50
2023-03-05T04:10:22.088Z,3.52
2023-03-05T04:12:48.529Z,3.49
2023-03-05T04:15:15.118Z,3.28
2023-03-05T04:17:41.516Z,3.19
2023-03-05T04:20:10.410Z,3.38
2023-03-05T04:22:37.631Z,3.49
2023-03-05T04:25:06.541Z,3.54
2023-03-05T04:27:34.252Z,3.46
2023-03-05T04:30:01.063Z,3.55
2023-03-05T04:32:29.784Z,3.67
2023-03-05T04:34:57.043Z,3.68
2023-03-05T04:37:25.103Z,3.65
2023-03-05T04:39:52.731Z,3.66
2023-03-05T04:42:21.089Z,3.63
2023-03-05T04:44:49.352Z,3.67
2023-03-05T04:47:16.600Z,3.61
2023-03-05T04:49:43.026Z,3.46
2023-03-05T04:52:12.219Z,3.38
2023-03-05T04:54:39.013Z,3.29
2023-03-05T04:57:05.910Z,3.34
2023-03-05T04:59:32.385Z,3.26
2023-03-05T05:01:58.830Z,3.18
2023-03-05T05:04:25.265Z,2.73
2023-03-05T05:06:56.153Z,2.38
2023-03-05T05:09:23.555Z,2.37
2023-03-05T05:11:50.124Z,2.61
2023-03-05T05:14:16.597Z,2.76
2023-03-05T05:16:43.255Z,2.65
2023-03-05T05:19:09.728Z,2.61
2023-03-05T05:21:36.269Z,2.79
2023-03-05T05:24:02.745Z,2.89
2023-03-05T05:26:29.244Z,2.80
2023-03-05T05:28:55.692Z,2.69
2023-03-05T05:31:22.155Z,2.69
2023-03-05T05:33:49.931Z,2.70
2023-03-05T05:36:19.164Z,2.77
2023-03-05T05:38:46.000Z,2.73
2023-03-05T05:41:15.559Z,2.78
2023-03-05T05:43:42.512Z,2.61
2023-03-05T05:46:12.986Z,2.56
2023-03-05T05:48:40.012Z,2.61
2023-03-05T05:51:19.023Z,2.50
2023-03-05T05:53:46.039Z,2.39
2023-03-05T05:56:13.634Z,2.50
2023-03-05T05:58:41.275Z,2.59
2023-03-05T06:01:21.711Z,2.45
2023-03-05T06:03:48.287Z,2.38
2023-03-05T06:06:17.619Z,2.44
2023-03-05T06:08:44.738Z,2.40
2023-03-05T06:11:11.276Z,2.45
2023-03-05T06:13:38.633Z,2.58
2023-03-05T06:16:08.683Z,2.66
2023-03-05T06:18:35.634Z,2.68
2023-03-05T06:21:05.469Z,2.76
2023-03-05T06:23:32.368Z,2.82
2023-03-05T06:26:00.763Z,2.88
2023-03-05T06:28:27.323Z,2.89
2023-03-05T06:31:05.445Z,2.91
2023-03-05T06:33:32.565Z,2.71
2023-03-05T06:35:59.704Z,2.63
2023-03-05T06:38:26.407Z,2.68
2023-03-05T06:40:52.877Z,2.70
2023-03-05T06:43:19.596Z,2.83
2023-03-05T06:45:46.154Z,2.86
2023-03-05T06:48:12.846Z,2.93
2023-03-05T06:50:40.181Z,2.96
2023-03-05T06:53:06.659Z,3.05
2023-03-05T06:55:39.598Z,2.96
2023-03-05T06:58:06.772Z,3.03
2023-03-05T07:00:33.273Z,3.23
2023-03-05T07:02:59.765Z,3.35
2023-03-05T07:05:26.198Z,3.40
2023-03-05T07:07:52.629Z,3.46
2023-03-05T07:10:19.444Z,3.56
2023-03-05T07:12:45.900Z,3.63
2023-03-05T07:15:12.765Z,3.87
2023-03-05T07:17:39.197Z,3.90
2023-03-05T07:20:06.397Z,4.10
2023-03-05T07:22:32.898Z,4.31
2023-03-05T07:24:59.373Z,4.50
2023-03-05T07:27:25.818Z,4.60
2023-03-05T07:29:52.425Z,4.69
2023-03-05T07:32:19.074Z,4.81
2023-03-05T07:34:45.508Z,4.93
2023-03-05T07:37:13.245Z,5.05
2023-03-05T07:39:39.667Z,5.24
2023-03-05T07:42:06.293Z,5.19
2023-03-05T07:44:32.942Z,5.30
2023-03-05T07:46:59.491Z,5.45
2023-03-05T07:49:26.072Z,5.67
2023-03-05T07:51:52.564Z,5.78
2023-03-05T07:54:19.034Z,5.89
2023-03-05T07:56:45.540Z,5.97
2023-03-05T07:59:13.376Z,6.10
2023-03-05T08:01:40.283Z,6.22
2023-03-05T08:04:08.743Z,6.35
2023-03-05T08:06:35.217Z,6.42
2023-03-05T08:09:01.683Z,6.55
2023-03-05T08:11:28.756Z,6.66
2023-03-05T08:13:56.213Z,6.73
2023-03-05T08:16:25.804Z,6.76
2023-03-05T08:18:56.032Z,6.82
2023-03-05T08:21:29.381Z,6.84
2023-03-05T08:23:57.308Z,6.89
2023-03-05T08:26:26.148Z,7.02
2023-03-05T08:28:53.128Z,7.12
2023-03-05T08:31:22.041Z,7.12
2023-03-05T08:33:53.688Z,7.18
2023-03-05T08:36:20.331Z,7.24
2023-03-05T08:38:48.552Z,7.27
2023-03-05T08:41:17.290Z,7.37
2023-03-05T08:43:43.851Z,7.39
2023-03-05T08:46:12.665Z,7.36
2023-03-05T08:48:39.528Z,7.31
2023-03-05T08:51:17.612Z,7.16
2023-03-05T08:53:45.255Z,7.28
2023-03-05T08:56:12.523Z,7.45
2023-03-05T08:58:39.024Z,7.55
2023-03-05T09:01:06.087Z,7.60
2023-03-05T09:03:32.708Z,7.79
2023-03-05T09:06:04.919Z,7.91
2023-03-05T09:08:31.660Z,7.89
2023-03-05T09:10:58.217Z,7.92
2023-03-05T09:13:24.809Z,7.83
2023-03-05T09:15:59.562Z,7.96
2023-03-05T09:18:26.908Z,8.04
2023-03-05T09:20:53.914Z,8.03
2023-03-05T09:23:20.479Z,8.23
2023-03-05T09:25:47.014Z,8.19
2023-03-05T09:28:13.542Z,8.21
2023-03-05T09:30:40.017Z,8.38
2023-03-05T09:33:07.154Z,8.47
2023-03-05T09:35:37.239Z,8.52
2023-03-05T09:38:04.799Z,8.63
2023-03-05T09:40:45.666Z,8.79
2023-03-05T09:43:36.441Z,8.89
2023-03-05T09:46:33.174Z,8.83
2023-03-05T09:49:16.055Z,8.92
2023-03-05T09:51:46.712Z,9.00
2023-03-05T09:54:25.047Z,9.12
2023-03-05T09:56:56.949Z,9.19
2023-03-05T09:59:32.719Z,9.33
2023-03-05T10:02:23.224Z,9.54
2023-03-05T10:04:59.881Z,9.50
2023-03-05T10:07:30.932Z,9.62
2023-03-05T10:10:02.450Z,9.78
2023-03-05T10:12:43.057Z,9.93
2023-03-05T10:15:21.062Z,10.22
2023-03-05T10:18:00.598Z,10.34
2023-03-05T10:20:39.119Z,10.29
2023-03-05T10:23:15.959Z,10.37
2023-03-05T10:25:57.604Z,10.55
2023-03-05T10:28:46.533Z,10.72
2023-03-05T10:31:38.375Z,10.94
2023-03-05T10:34:54.543Z,11.19
2023-03-05T10:37:29.698Z,11.34
2023-03-05T10:40:09.685Z,11.39
2023-03-05T10:42:58.640Z,11.50
2023-03-05T10:45:32.108Z,11.38
2023-03-05T10:48:27.952Z,11.40
2023-03-05T10:51:01.426Z,11.42
2023-03-05T10:53:29.118Z,11.56
2023-03-05T10:55:58.263Z,11.77
2023-03-05T10:58:25.178Z,11.95
2023-03-05T11:01:25.578Z,12.02
2023-03-05T11:03:54.015Z,12.19
2023-03-05T11:06:34.525Z,12.24
2023-03-05T11:09:40.596Z,12.29
2023-03-05T11:12:09.846Z,12.26
2023-03-05T11:14:39.935Z,12.27
2023-03-05T11:17:28.384Z,12.21
2023-03-05T11:19:56.981Z,12.22
2023-03-05T11:22:25.177Z,12.24
2023-03-05T11:25:15.150Z,12.34
2023-03-05T11:28:01.864Z,12.42
2023-03-05T11:30:35.575Z,12.49
2023-03-05T11:33:14.478Z,12.67
2023-03-05T11:35:43.629Z,12.71
2023-03-05T11:38:24.990Z,12.74
2023-03-05T11:40:52.128Z,12.67
2023-03-05T11:43:22.264Z,12.70
2023-03-05T11:45:52.411Z,12.85
2023-03-05T11:48:24.398Z,12.97
2023-03-05T11:51:01.412Z,13.28
2023-03-05T11:53:29.511Z,13.16
2023-03-05T11:56:03.807Z,13.16
2023-03-05T11:58:42.543Z,13.06
2023-03-05T12:01:23.488Z,13.13
2023-03-05T12:03:51.321Z,13.34
2023-03-05T12:06:28.858Z,13.42
2023-03-05T12:09:02.772Z,13.32
2023-03-05T12:11:32.150Z,13.14
2023-03-05T12:14:10.739Z,13.26
2023-03-05T12:16:46.419Z,13.50
2023-03-05T12:19:35.590Z,13.33
2023-03-05T12:22:03.796Z,13.33
2023-03-05T12:24:35.580Z,13.48
2023-03-05T12:27:05.164Z,13.54
2023-03-05T12:29:43.919Z,13.39
2023-03-05T12:32:22.763Z,13.47
2023-03-05T12:35:22.898Z,13.41
2023-03-05T12:37:52.501Z,13.53
2023-03-05T12:40:31.416Z,13.54
2023-03-05T12:42:59.384Z,13.68
2023-03-05T12:45:42.810Z,13.53
2023-03-05T12:48:12.558Z,13.56
2023-03-05T12:50:39.049Z,13.78
2023-03-05T12:53:18.806Z,13.91
2023-03-05T12:55:48.199Z,13.97
2023-03-05T12:58:21.376Z,14.05
2023-03-05T13:01:11.050Z,13.95
2023-03-05T13:03:47.330Z,13.93
2023-03-05T13:06:29.790Z,13.74
2023-03-05T13:09:21.674Z,13.87
2023-03-05T13:11:51.682Z,13.85
2023-03-05T13:14:36.038Z,13.80
2023-03-05T13:17:23.233Z,13.90
2023-03-05T13:19:50.028Z,13.98
2023-03-05T13:22:16.499Z,13.90
2023-03-05T13:24:43.002Z,13.80
2023-03-05T13:27:30.073Z,13.87
2023-03-05T13:29:56.555Z,14.00
2023-03-05T13:32:28.416Z,13.86
2023-03-05T13:34:57.958Z,13.74
2023-03-05T13:37:27.201Z,13.69
2023-03-05T13:39:57.685Z,13.73
2023-03-05T13:42:34.516Z,13.72
2023-03-05T13:45:05.860Z,13.65
2023-03-05T13:47:35.532Z,13.74
2023-03-05T13:50:08.011Z,13.79
2023-03-05T13:52:38.567Z,13.82
2023-03-05T13:55:13.522Z,13.87
2023-03-05T13:57:53.757Z,13.70
2023-03-05T14:00:28.769Z,13.73
2023-03-05T14:02:59.598Z,13.85
2023-03-05T14:05:35.298Z,13.84
2023-03-05T14:08:02.407Z,13.87
2023-03-05T14:10:30.946Z,13.97
2023-03-05T14:12:59.782Z,14.01
2023-03-05T14:15:34.208Z,14.00
2023-03-05T14:18:14.588Z,13.96
2023-03-05T14:21:03.590Z,14.04
2023-03-05T14:23:48.225Z,14.08
2023-03-05T14:26:24.008Z,13.98
2023-03-05T14:28:56.459Z,13.92
2023-03-05T14:31:24.162Z,13.98
2023-03-05T14:33:52.097Z,13.95
2023-03-05T14:36:24.549Z,13.95
2023-03-05T14:38:53.400Z,13.93
2023-03-05T14:41:38.880Z,13.96
2023-03-05T14:44:17.529Z,14.03
2023-03-05T14:46:49.086Z,14.08
2023-03-05T14:49:16.145Z,14.09
2023-03-05T14:51:45.374Z,14.13
2023-03-05T14:54:20.847Z,14.06
2023-03-05T14:56:48.726Z,14.05
2023-03-05T14:59:17.268Z,14.07
2023-03-05T15:01:43.854Z,14.04
2023-03-05T15:04:10.671Z,14.02
2023-03-05T15:06:40.268Z,14.17
2023-03-05T15:09:08.002Z,14.13
2023-03-05T15:11:35.137Z,13.98
2023-03-05T15:14:01.624Z,13.85
2023-03-05T15:16:28.288Z,13.93
2023-03-05T15:18:54.765Z,13.88
2023-03-05T15:21:21.213Z,13.83
2023-03-05T15:23:47.755Z,13.88
2023-03-05T15:26:15.096Z,13.91
2023-03-05T15:28:42.766Z,13.94
2023-03-05T15:31:09.997Z,13.92
2023-03-05T15:33:36.534Z,13.91
2023-03-05T15:36:03.601Z,13.81
2023-03-05T15:38:30.053Z,13.73
2023-03-05T15:40:56.605Z,13.64
2023-03-05T15:43:23.215Z,13.61
2023-03-05T15:45:49.654Z,13.61
2023-03-05T15:48:16.277Z,13.56
2023-03-05T15:50:45.849Z,13.51
2023-03-05T15:53:16.120Z,13.52
2023-03-05T15:55:43.815Z,13.55
2023-03-05T15:58:14.871Z,13.57
2023-03-05T16:00:41.461Z,13.56
2023-03-05T16:03:08.035Z,13.51
2023-03-05T16:05:36.480Z,13.45
2023-03-05T16:08:03.314Z,13.44
2023-03-05T16:10:30.938Z,13.43
2023-03-05T16:13:20.564Z,13.60
2023-03-05T16:15:52.782Z,13.79
2023-03-05T16:18:20.192Z,13.83
2023-03-05T16:20:47.664Z,13.94
2023-03-05T16:23:14.550Z,14.11
2023-03-05T16:25:41.041Z,13.97
2023-03-05T16:28:07.468Z,14.04
2023-03-05T16:30:33.921Z,14.18
2023-03-05T16:33:00.724Z,14.24
2023-03-05T16:35:27.276Z,14.01
2023-03-05T16:37:53.865Z,13.84
2023-03-05T16:40:20.383Z,13.66
2023-03-05T16:42:46.821Z,13.40
2023-03-05T16:45:13.548Z,13.22
2023-03-05T16:47:40.595Z,13.08
2023-03-05T16:50:08.945Z,12.98
2023-03-05T16:52:36.132Z,12.91
2023-03-05T16:55:04.358Z,12.81
2023-03-05T16:57:30.866Z,12.75
2023-03-05T16:59:58.416Z,12.72
2023-03-05T17:02:24.912Z,12.63
2023-03-05T17:04:51.433Z,12.53
2023-03-05T17:07:18.637Z,12.46
2023-03-05T17:09:46.423Z,12.37
2023-03-05T17:12:12.932Z,12.28
2023-03-05T17:14:40.031Z,12.22
2023-03-05T17:17:06.654Z,12.16
2023-03-05T17:19:33.308Z,12.08
2023-03-05T17:21:59.938Z,12.02
2023-03-05T17:24:26.862Z,11.96
2023-03-05T17:26:53.476Z,11.88
2023-03-05T17:29:21.616Z,11.83
2023-03-05T17:31:50.838Z,11.77
2023-03-05T17:34:18.408Z,11.72
2023-03-05T17:36:50.392Z,11.67
2023-03-05T17:39:20.762Z,11.64
2023-03-05T17:41:47.480Z,11.59
2023-03-05T17:44:14.426Z,11.57
2023-03-05T17:46:41.118Z,11.57
2023-03-05T17:49:07.603Z,11.47
2023-03-05T17:51:34.206Z,11.33
2023-03-05T17:54:00.891Z,11.24
2023-03-05T17:56:27.517Z,11.17
2023-03-05T17:58:54.552Z,11.14
2023-03-05T18:01:30.711Z,11.07
2023-03-05T18:03:57.456Z,10.98
2023-03-05T18:06:25.108Z,10.87
2023-03-05T18:08:51.720Z,10.76
2023-03-05T18:11:18.691Z,10.74
2023-03-05T18:13:45.442Z,10.68
2023-03-05T18:16:14.355Z,10.67
2023-03-05T18:18:41.723Z,10.67
2023-03-05T18:21:08.566Z,10.67
2023-03-05T18:23:36.486Z,10.63
2023-03-05T18:26:03.173Z,10.56
2023-03-05T18:28:29.853Z,10.53
2023-03-05T18:30:56.551Z,10.50
2023-03-05T18:33:24.990Z,10.49
2023-03-05T18:35:52.560Z,10.46
2023-03-05T18:38:21.322Z,10.44
2023-03-05T18:40:51.162Z,10.44
2023-03-05T18:43:20.650Z,10.46
2023-03-05T18:45:52.763Z,10.43
2023-03-05T18:48:20.178Z,10.42
2023-03-05T18:50:50.454Z,10.38
2023-03-05T18:53:17.283Z,10.37
2023-03-05T18:55:44.889Z,10.37
2023-03-05T18:58:15.520Z,10.33
2023-03-05T19:00:42.932Z,10.36
2023-03-05T19:03:11.661Z,10.30
2023-03-05T19:05:39.145Z,10.22
2023-03-05T19:08:07.711Z,10.18
2023-03-05T19:10:34.657Z,10.12
2023-03-05T19:13:48.999Z,10.03
2023-03-05T19:16:23.239Z,10.04
2023-03-05T19:19:20.520Z,10.05
2023-03-05T19:21:49.953Z,9.98
2023-03-05T19:24:17.305Z,9.94
2023-03-05T19:26:44.235Z,9.92
2023-03-05T19:29:11.912Z,9.91
2023-03-05T19:31:38.542Z,9.86
2023-03-05T19:34:05.881Z,9.82
2023-03-05T19:36:34.379Z,9.74
2023-03-05T19:39:04.295Z,9.73
2023-03-05T19:41:30.997Z,9.67
2023-03-05T19:43:58.158Z,9.58
2023-03-05T19:46:25.291Z,9.53
2023-03-05T19:48:52.269Z,9.43
2023-03-05T19:51:21.772Z,9.33
2023-03-05T19:53:49.268Z,9.32
2023-03-05T19:56:17.250Z,9.24
2023-03-05T19:58:45.836Z,9.30
2023-03-05T20:01:23.574Z,9.28
2023-03-05T20:04:24.641Z,9.22
2023-03-05T20:06:51.717Z,9.21
2023-03-05T20:09:18.671Z,8.90
2023-03-05T20:11:46.235Z,8.88
2023-03-05T20:14:16.125Z,8.79
2023-03-05T20:16:43.505Z,8.73
2023-03-05T20:19:16.271Z,8.71
2023-03-05T20:21:43.563Z,8.78
2023-03-05T20:24:16.173Z,8.85
2023-03-05T20:26:44.813Z,8.82
2023-03-05T20:29:14.878Z,8.76
2023-03-05T20:31:43.674Z,8.54
2023-03-05T20:34:13.736Z,8.40
2023-03-05T20:36:40.768Z,8.47
2023-03-05T20:39:08.425Z,8.40
2023-03-05T20:41:38.222Z,8.41
2023-03-05T20:44:05.907Z,8.45
2023-03-05T20:46:35.941Z,8.32
2023-03-05T20:49:04.490Z,8.06
2023-03-05T20:51:35.027Z,8.13
2023-03-05T20:54:11.470Z,8.06
2023-03-05T20:56:39.122Z,8.15
2023-03-05T20:59:11.021Z,7.99
2023-03-05T21:01:39.865Z,7.95
2023-03-05T21:04:07.603Z,7.98
2023-03-05T21:06:35.203Z,8.02
2023-03-05T21:09:02.446Z,8.00
2023-03-05T21:11:32.075Z,7.83
2023-03-05T21:13:59.263Z,7.38
2023-03-05T21:16:27.387Z,7.22
2023-03-05T21:18:56.122Z,7.27
2023-03-05T21:21:23.082Z,7.44
2023-03-05T21:23:49.979Z,7.66
2023-03-05T21:26:17.950Z,7.80
2023-03-05T21:28:44.600Z,7.70
2023-03-05T21:31:16.569Z,7.52
2023-03-05T21:33:43.100Z,7.47
2023-03-05T21:36:10.550Z,7.48
2023-03-05T21:38:37.208Z,7.44
2023-03-05T21:41:06.998Z,7.47
2023-03-05T21:43:34.000Z,7.32
2023-03-05T21:46:03.025Z,7.33
2023-03-05T21:48:30.181Z,7.32
2023-03-05T21:50:58.361Z,7.30
2023-03-05T21:53:25.162Z,7.35
2023-03-05T21:56:25.412Z,7.45
2023-03-05T21:58:53.030Z,7.41
2023-03-05T22:01:21.207Z,7.46
2023-03-05T22:03:48.823Z,7.43
2023-03-05T22:06:17.268Z,7.28
2023-03-05T22:08:43.790Z,7.27
2023-03-05T22:11:11.333Z,7.40
2023-03-05T22:13:38.387Z,7.37
2023-03-05T22:16:05.946Z,7.28
2023-03-05T22:18:33.182Z,7.35
2023-03-05T22:21:00.674Z,7.45
2023-03-05T22:23:30.619Z,7.35
2023-03-05T22:26:01.469Z,7.18
2023-03-05T22:28:28.817Z,7.16
2023-03-05T22:30:55.976Z,7.15
2023-03-05T22:33:23.293Z,7.12
2023-03-05T22:35:50.492Z,7.13
2023-03-05T22:38:17.735Z,6.99
2023-03-05T22:40:45.709Z,6.85
2023-03-05T22:43:13.024Z,6.75
2023-03-05T22:45:40.005Z,6.66
2023-03-05T22:48:09.701Z,6.70
2023-03-05T22:50:40.339Z,6.79
2023-03-05T22:53:06.892Z,6.79
2023-03-05T22:55:33.313Z,6.58
2023-03-05T22:57:59.785Z,6.52
2023-03-05T23:00:26.751Z,6.51
2023-03-05T23:02:53.940Z,6.52
2023-03-05T23:05:21.453Z,6.49
2023-03-05T23:07:48.043Z,6.58
2023-03-05T23:10:20.545Z,6.58
2023-03-05T23:12:50.168Z,6.55
2023-03-05T23:15:37.304Z,6.54
2023-03-05T23:18:06.234Z,6.50
2023-03-05T23:20:35.137Z,6.47
2023-03-05T23:23:03.287Z,6.35
2023-03-05T23:25:32.789Z,6.22
2023-03-05T23:28:00.238Z,6.14
2023-03-05T23:30:28.891Z,6.11
2023-03-05T23:32:58.785Z,6.14
2023-03-05T23:35:28.045Z,6.17
2023-03-05T23:37:55.976Z,6.31
2023-03-05T23:40:28.282Z,6.39
2023-03-05T23:42:54.804Z,6.36
2023-03-05T23:45:22.464Z,6.37
2023-03-05T23:47:49.716Z,6.32
2023-03-05T23:50:18.766Z,6.35
2023-03-05T23:52:45.570Z,6.35
2023-03-05T23:55:26.955Z,6.23
2023-03-05T23:57:54.138Z,6.33
